Terminal Aerodrome Forecast
Issued by NWS

Home | Current Version | Previous Version | Text Only | Print | Product List | Glossary On
Versions: 1 2 3 4 5 6 7 8 9 10 11 12 13
000
FTUS45 KGGW 211100
TAFSDY
TAF
KSDY 211137Z 2112/2212 30008KT P6SM SCT080
      TEMPO 2112/2114 1SM BR SCT004
     FM211600 35007KT P6SM BKN090
     FM212100 36008KT 6SM -SHRA BKN040 OVC070
     FM220800 35006KT P6SM -SHRA OVC050
      AMD LTD TO CLD VIS AND WIND=

USA.gov is the U.S. government's official web portal to all federal, state and local government web resources and services.